Impacts TAF Board
For situational awareness. Not to be used for flight planning purposes.
IDs:

EDDK - Koln-Bonn Arpt, NT, DL

Issued at 1100 UTC 13 May 2021
Updated at 1152 UTC 13 May 2021
Potential Impact None Slight Moderate High
Time1120Z 13/12Z 13/13Z 13/14Z 13/15Z 13/16Z 13/17Z 13/18Z 13/19Z 13/20Z 13/21Z 13/22Z 13/23Z 14/00Z>>
Type OBS PRVL PRVL PRVL PRVL
  [TEMP]  
PRVL
  [PRB30]  
PRVL
  [PRB30]  
PRVL
  [PRB30]  
PRVL PRVL PRVL PRVL PRVL PRVL
VIS >6 >6 >6 >6 >6 >6 >6 >6 >6 >6 >6 >6 >6 >6
CIG -- -- -- -- --
  [30]  
--
  [25]  
--
  [25]  
--
  [25]  
-- -- -- -- -- --
Cover CAVOK FEW FEW FEW FEW
  [BKN]  
FEW
  [BKN]  
FEW
  [BKN]  
FEW
  [BKN]  
FEW FEW FEW FEW FEW FEW
FltCat VFR VFR VFR VFR VFR
  [MVFR]  
VFR
  [MVFR]  
VFR
  [MVFR]  
VFR
  [MVFR]  
VFR VFR VFR VFR VFR VFR
WX -- -- -- -- --
  [SHRA]  
--
  [TSRA]  
--
  [TSRA]  
--
  [TSRA]  
-- -- -- -- -- --
WDir 290 VRB VRB VRB VRB
[280]
VRB
[240]
VRB
[240]
VRB
[240]
VRB VRB VRB VRB VRB VRB
WSpd 4 3 3 3 3
  [5]  
3
  [10]  
3
  [10]  
3
  [10]  
3 3 3 3 3 3
WGst -- -- -- -- --
  [--]  
--
  [--]  
--
  [--]  
--
  [--]  
-- -- -- -- -- --
Raw TAF
TAF EDDK 131100Z 1312/1418 VRB03KT 9999 FEW045
  TEMPO 1315/1319 28005KT SHRA BKN030CB
  PROB30
  TEMPO 1316/1319 24010KT TSRA BKN025CB
  BECMG 1407/1409 26006KT
  TEMPO 1413/1417 SHRA BKN030CB
  PROB30
  TEMPO 1413/1416 TSRA


Raw METAR
EDDK 131120Z 29004KT 240V340 CAVOK 19/02 Q1006 NOSIG
EDDK 131050Z VRB03KT CAVOK 20/04 Q1006 NOSIG
EDDK 131020Z VRB02KT CAVOK 18/05 Q1006 NOSIG
EDDK 130950Z 29004KT 210V360 9999 FEW045 18/07 Q1007 NOSIG
EDDK 130920Z VRB03KT 9999 FEW040 18/07 Q1007 NOSIG
EDDK 130850Z VRB02KT 9999 FEW035 16/07 Q1007 NOSIG

METAR Board
For situational awareness. Not to be used for flight planning purposes.